sensor_id;sensor_type;location;lat;lon;timestamp;P1;durP1;ratioP1;P2;durP2;ratioP2
26920;SDS011;14483;47.844;9.660;2023-04-25T00:00:57;2.97;;;1.45;;
26920;SDS011;14483;47.844;9.660;2023-04-25T00:03:23;3.55;;;1.75;;
26920;SDS011;14483;47.844;9.660;2023-04-25T00:05:50;2.63;;;1.52;;
26920;SDS011;14483;47.844;9.660;2023-04-25T00:08:18;3.88;;;1.25;;
26920;SDS011;14483;47.844;9.660;2023-04-25T00:10:44;4.85;;;1.65;;
26920;SDS011;14483;47.844;9.660;2023-04-25T00:13:11;4.65;;;1.90;;
26920;SDS011;14483;47.844;9.660;2023-04-25T00:15:37;4.55;;;1.65;;
26920;SDS011;14483;47.844;9.660;2023-04-25T00:18:03;5.05;;;1.60;;
26920;SDS011;14483;47.844;9.660;2023-04-25T00:20:30;5.22;;;1.65;;
26920;SDS011;14483;47.844;9.660;2023-04-25T00:22:57;3.35;;;1.73;;
26920;SDS011;14483;47.844;9.660;2023-04-25T00:25:24;3.80;;;1.75;;
26920;SDS011;14483;47.844;9.660;2023-04-25T00:27:51;2.67;;;1.38;;
26920;SDS011;14483;47.844;9.660;2023-04-25T00:30:17;6.50;;;1.70;;
26920;SDS011;14483;47.844;9.660;2023-04-25T00:32:43;4.35;;;1.42;;
26920;SDS011;14483;47.844;9.660;2023-04-25T00:35:10;5.03;;;1.63;;
26920;SDS011;14483;47.844;9.660;2023-04-25T00:37:37;3.63;;;1.85;;
26920;SDS011;14483;47.844;9.660;2023-04-25T00:40:04;3.60;;;1.63;;
26920;SDS011;14483;47.844;9.660;2023-04-25T00:42:33;4.05;;;1.90;;
26920;SDS011;14483;47.844;9.660;2023-04-25T00:45:00;4.78;;;1.42;;
26920;SDS011;14483;47.844;9.660;2023-04-25T00:47:27;5.30;;;1.80;;
26920;SDS011;14483;47.844;9.660;2023-04-25T00:49:54;4.25;;;1.98;;
26920;SDS011;14483;47.844;9.660;2023-04-25T00:52:20;5.20;;;2.00;;
26920;SDS011;14483;47.844;9.660;2023-04-25T00:54:46;7.60;;;2.30;;
26920;SDS011;14483;47.844;9.660;2023-04-25T00:57:13;3.92;;;1.67;;
26920;SDS011;14483;47.844;9.660;2023-04-25T00:59:41;3.25;;;1.80;;
26920;SDS011;14483;47.844;9.660;2023-04-25T01:02:11;2.75;;;1.48;;
26920;SDS011;14483;47.844;9.660;2023-04-25T01:04:37;6.45;;;2.05;;
26920;SDS011;14483;47.844;9.660;2023-04-25T01:07:03;5.65;;;1.88;;
26920;SDS011;14483;47.844;9.660;2023-04-25T01:09:30;5.03;;;1.58;;
26920;SDS011;14483;47.844;9.660;2023-04-25T01:11:56;5.18;;;1.77;;
26920;SDS011;14483;47.844;9.660;2023-04-25T01:14:23;4.75;;;1.77;;
26920;SDS011;14483;47.844;9.660;2023-04-25T01:16:51;5.43;;;2.20;;
26920;SDS011;14483;47.844;9.660;2023-04-25T01:19:18;5.13;;;1.90;;
26920;SDS011;14483;47.844;9.660;2023-04-25T01:21:46;3.60;;;2.10;;
26920;SDS011;14483;47.844;9.660;2023-04-25T01:24:13;5.75;;;2.00;;
26920;SDS011;14483;47.844;9.660;2023-04-25T01:26:39;7.18;;;1.85;;
26920;SDS011;14483;47.844;9.660;2023-04-25T01:29:09;3.20;;;1.73;;
26920;SDS011;14483;47.844;9.660;2023-04-25T01:31:36;5.70;;;2.10;;
26920;SDS011;14483;47.844;9.660;2023-04-25T01:34:02;4.15;;;2.47;;
26920;SDS011;14483;47.844;9.660;2023-04-25T01:36:29;4.10;;;1.70;;
26920;SDS011;14483;47.844;9.660;2023-04-25T01:38:56;6.25;;;1.73;;
26920;SDS011;14483;47.844;9.660;2023-04-25T01:41:23;5.32;;;1.75;;
26920;SDS011;14483;47.844;9.660;2023-04-25T01:43:49;6.53;;;1.80;;
26920;SDS011;14483;47.844;9.660;2023-04-25T01:46:16;3.30;;;1.90;;
26920;SDS011;14483;47.844;9.660;2023-04-25T01:48:42;3.78;;;2.00;;
26920;SDS011;14483;47.844;9.660;2023-04-25T01:51:09;3.78;;;1.67;;
26920;SDS011;14483;47.844;9.660;2023-04-25T01:53:36;3.33;;;1.70;;
26920;SDS011;14483;47.844;9.660;2023-04-25T01:56:04;5.78;;;1.73;;
26920;SDS011;14483;47.844;9.660;2023-04-25T01:58:31;4.40;;;1.65;;
26920;SDS011;14483;47.844;9.660;2023-04-25T02:00:57;1.77;;;0.98;;
26920;SDS011;14483;47.844;9.660;2023-04-25T02:03:24;2.70;;;1.20;;
26920;SDS011;14483;47.844;9.660;2023-04-25T02:05:50;3.22;;;1.67;;
26920;SDS011;14483;47.844;9.660;2023-04-25T02:08:17;4.32;;;1.70;;
26920;SDS011;14483;47.844;9.660;2023-04-25T02:10:43;5.68;;;1.48;;
26920;SDS011;14483;47.844;9.660;2023-04-25T02:13:11;3.13;;;1.52;;
26920;SDS011;14483;47.844;9.660;2023-04-25T02:15:37;3.75;;;1.40;;
26920;SDS011;14483;47.844;9.660;2023-04-25T02:18:04;4.65;;;1.65;;
26920;SDS011;14483;47.844;9.660;2023-04-25T02:20:31;3.13;;;1.42;;
26920;SDS011;14483;47.844;9.660;2023-04-25T02:22:57;3.13;;;1.40;;
26920;SDS011;14483;47.844;9.660;2023-04-25T02:25:24;3.47;;;1.48;;
26920;SDS011;14483;47.844;9.660;2023-04-25T02:27:50;4.93;;;1.35;;
26920;SDS011;14483;47.844;9.660;2023-04-25T02:30:18;4.18;;;1.38;;
26920;SDS011;14483;47.844;9.660;2023-04-25T02:32:45;4.63;;;1.35;;
26920;SDS011;14483;47.844;9.660;2023-04-25T02:35:11;4.57;;;1.10;;
26920;SDS011;14483;47.844;9.660;2023-04-25T02:37:38;3.75;;;1.35;;
26920;SDS011;14483;47.844;9.660;2023-04-25T02:40:05;3.15;;;1.13;;
26920;SDS011;14483;47.844;9.660;2023-04-25T02:42:33;1.67;;;0.93;;
26920;SDS011;14483;47.844;9.660;2023-04-25T02:44:59;2.38;;;1.00;;
26920;SDS011;14483;47.844;9.660;2023-04-25T02:47:27;4.00;;;1.17;;
26920;SDS011;14483;47.844;9.660;2023-04-25T02:49:53;3.38;;;1.40;;
26920;SDS011;14483;47.844;9.660;2023-04-25T02:52:20;2.35;;;0.98;;
26920;SDS011;14483;47.844;9.660;2023-04-25T02:54:46;2.55;;;1.13;;
26920;SDS011;14483;47.844;9.660;2023-04-25T02:57:12;3.95;;;1.33;;
26920;SDS011;14483;47.844;9.660;2023-04-25T02:59:39;3.88;;;1.38;;
26920;SDS011;14483;47.844;9.660;2023-04-25T03:02:05;4.32;;;1.27;;
26920;SDS011;14483;47.844;9.660;2023-04-25T03:04:33;3.20;;;1.02;;
26920;SDS011;14483;47.844;9.660;2023-04-25T03:06:59;2.17;;;1.13;;
26920;SDS011;14483;47.844;9.660;2023-04-25T03:09:26;2.88;;;1.10;;
26920;SDS011;14483;47.844;9.660;2023-04-25T03:11:52;3.40;;;1.08;;
26920;SDS011;14483;47.844;9.660;2023-04-25T03:14:18;2.55;;;1.50;;
26920;SDS011;14483;47.844;9.660;2023-04-25T03:16:45;3.60;;;1.20;;
26920;SDS011;14483;47.844;9.660;2023-04-25T03:19:11;2.17;;;1.02;;
26920;SDS011;14483;47.844;9.660;2023-04-25T03:21:39;2.22;;;1.00;;
26920;SDS011;14483;47.844;9.660;2023-04-25T03:24:05;3.75;;;1.02;;
26920;SDS011;14483;47.844;9.660;2023-04-25T03:26:32;1.92;;;0.95;;
26920;SDS011;14483;47.844;9.660;2023-04-25T03:28:58;5.43;;;1.30;;
26920;SDS011;14483;47.844;9.660;2023-04-25T03:31:24;2.25;;;1.40;;
26920;SDS011;14483;47.844;9.660;2023-04-25T03:33:51;5.15;;;1.73;;
26920;SDS011;14483;47.844;9.660;2023-04-25T03:36:17;6.65;;;1.27;;
26920;SDS011;14483;47.844;9.660;2023-04-25T03:38:45;4.07;;;1.20;;
26920;SDS011;14483;47.844;9.660;2023-04-25T03:41:11;7.65;;;1.50;;
26920;SDS011;14483;47.844;9.660;2023-04-25T03:43:37;6.25;;;1.40;;
26920;SDS011;14483;47.844;9.660;2023-04-25T03:46:04;2.65;;;1.38;;
26920;SDS011;14483;47.844;9.660;2023-04-25T03:48:30;2.78;;;1.13;;
26920;SDS011;14483;47.844;9.660;2023-04-25T03:50:56;7.15;;;1.77;;
26920;SDS011;14483;47.844;9.660;2023-04-25T03:53:23;4.55;;;1.48;;
26920;SDS011;14483;47.844;9.660;2023-04-25T03:55:50;3.00;;;1.30;;
26920;SDS011;14483;47.844;9.660;2023-04-25T03:58:17;5.10;;;2.08;;
26920;SDS011;14483;47.844;9.660;2023-04-25T04:00:44;2.67;;;1.10;;
26920;SDS011;14483;47.844;9.660;2023-04-25T04:03:10;7.57;;;1.65;;
26920;SDS011;14483;47.844;9.660;2023-04-25T04:05:37;3.47;;;1.30;;
26920;SDS011;14483;47.844;9.660;2023-04-25T04:08:05;4.75;;;1.10;;
26920;SDS011;14483;47.844;9.660;2023-04-25T04:10:32;2.85;;;1.30;;
26920;SDS011;14483;47.844;9.660;2023-04-25T04:12:59;1.95;;;1.10;;
26920;SDS011;14483;47.844;9.660;2023-04-25T04:15:26;3.67;;;1.38;;
26920;SDS011;14483;47.844;9.660;2023-04-25T04:17:52;2.83;;;1.23;;
26920;SDS011;14483;47.844;9.660;2023-04-25T04:20:19;5.30;;;1.38;;
26920;SDS011;14483;47.844;9.660;2023-04-25T04:22:45;2.97;;;1.15;;
26920;SDS011;14483;47.844;9.660;2023-04-25T04:25:11;2.97;;;1.40;;
26920;SDS011;14483;47.844;9.660;2023-04-25T04:27:38;3.42;;;1.20;;
26920;SDS011;14483;47.844;9.660;2023-04-25T04:30:07;3.72;;;1.33;;
26920;SDS011;14483;47.844;9.660;2023-04-25T04:32:34;3.17;;;2.08;;
26920;SDS011;14483;47.844;9.660;2023-04-25T04:35:01;3.30;;;1.40;;
26920;SDS011;14483;47.844;9.660;2023-04-25T04:37:28;7.78;;;1.50;;
26920;SDS011;14483;47.844;9.660;2023-04-25T04:39:55;4.13;;;1.35;;
26920;SDS011;14483;47.844;9.660;2023-04-25T04:42:21;4.07;;;1.45;;
26920;SDS011;14483;47.844;9.660;2023-04-25T04:44:50;9.43;;;2.92;;
26920;SDS011;14483;47.844;9.660;2023-04-25T04:47:18;5.65;;;2.85;;
26920;SDS011;14483;47.844;9.660;2023-04-25T04:49:45;8.50;;;2.75;;
26920;SDS011;14483;47.844;9.660;2023-04-25T04:52:11;4.95;;;1.90;;
26920;SDS011;14483;47.844;9.660;2023-04-25T04:54:38;5.53;;;1.75;;
26920;SDS011;14483;47.844;9.660;2023-04-25T04:57:04;3.35;;;1.90;;
26920;SDS011;14483;47.844;9.660;2023-04-25T04:59:30;2.78;;;1.50;;
26920;SDS011;14483;47.844;9.660;2023-04-25T05:01:57;3.95;;;1.50;;
26920;SDS011;14483;47.844;9.660;2023-04-25T05:04:25;3.08;;;1.35;;
26920;SDS011;14483;47.844;9.660;2023-04-25T05:06:51;6.38;;;1.40;;
26920;SDS011;14483;47.844;9.660;2023-04-25T05:09:17;3.35;;;1.48;;
26920;SDS011;14483;47.844;9.660;2023-04-25T05:11:44;2.00;;;1.20;;
26920;SDS011;14483;47.844;9.660;2023-04-25T05:14:10;4.22;;;1.40;;
26920;SDS011;14483;47.844;9.660;2023-04-25T05:16:37;5.93;;;2.30;;
26920;SDS011;14483;47.844;9.660;2023-04-25T05:19:03;11.85;;;3.97;;
26920;SDS011;14483;47.844;9.660;2023-04-25T05:21:31;5.63;;;3.28;;
26920;SDS011;14483;47.844;9.660;2023-04-25T05:23:57;5.47;;;2.28;;
26920;SDS011;14483;47.844;9.660;2023-04-25T05:26:24;5.72;;;2.72;;
26920;SDS011;14483;47.844;9.660;2023-04-25T05:28:51;5.15;;;1.83;;
26920;SDS011;14483;47.844;9.660;2023-04-25T05:31:17;5.00;;;2.10;;
26920;SDS011;14483;47.844;9.660;2023-04-25T05:33:43;6.70;;;2.45;;
26920;SDS011;14483;47.844;9.660;2023-04-25T05:36:10;7.78;;;2.17;;
26920;SDS011;14483;47.844;9.660;2023-04-25T05:38:37;5.10;;;2.63;;
26920;SDS011;14483;47.844;9.660;2023-04-25T05:41:04;4.65;;;2.00;;
26920;SDS011;14483;47.844;9.660;2023-04-25T05:43:30;8.25;;;1.70;;
26920;SDS011;14483;47.844;9.660;2023-04-25T05:45:57;8.48;;;1.60;;
26920;SDS011;14483;47.844;9.660;2023-04-25T05:48:23;5.60;;;1.75;;
26920;SDS011;14483;47.844;9.660;2023-04-25T05:50:49;4.03;;;1.65;;
26920;SDS011;14483;47.844;9.660;2023-04-25T05:53:16;3.58;;;1.45;;
26920;SDS011;14483;47.844;9.660;2023-04-25T05:55:44;8.18;;;1.58;;
26920;SDS011;14483;47.844;9.660;2023-04-25T05:58:10;4.13;;;2.00;;
26920;SDS011;14483;47.844;9.660;2023-04-25T06:00:37;6.35;;;1.90;;
26920;SDS011;14483;47.844;9.660;2023-04-25T06:03:03;5.45;;;1.63;;
26920;SDS011;14483;47.844;9.660;2023-04-25T06:05:29;10.95;;;2.17;;
26920;SDS011;14483;47.844;9.660;2023-04-25T06:07:56;8.30;;;1.95;;
26920;SDS011;14483;47.844;9.660;2023-04-25T06:10:22;4.22;;;2.00;;
26920;SDS011;14483;47.844;9.660;2023-04-25T06:12:50;4.88;;;2.00;;
26920;SDS011;14483;47.844;9.660;2023-04-25T06:15:16;5.32;;;1.90;;
26920;SDS011;14483;47.844;9.660;2023-04-25T06:17:42;8.65;;;1.83;;
26920;SDS011;14483;47.844;9.660;2023-04-25T06:20:09;4.47;;;2.40;;
26920;SDS011;14483;47.844;9.660;2023-04-25T06:22:36;5.68;;;2.17;;
26920;SDS011;14483;47.844;9.660;2023-04-25T06:25:02;4.85;;;2.03;;
26920;SDS011;14483;47.844;9.660;2023-04-25T06:27:29;6.35;;;2.17;;
26920;SDS011;14483;47.844;9.660;2023-04-25T06:29:57;7.28;;;2.15;;
26920;SDS011;14483;47.844;9.660;2023-04-25T06:32:23;6.50;;;2.38;;
26920;SDS011;14483;47.844;9.660;2023-04-25T06:34:50;8.70;;;2.40;;
26920;SDS011;14483;47.844;9.660;2023-04-25T06:37:16;7.95;;;2.00;;
26920;SDS011;14483;47.844;9.660;2023-04-25T06:39:42;5.55;;;1.80;;
26920;SDS011;14483;47.844;9.660;2023-04-25T06:42:09;6.13;;;1.73;;
26920;SDS011;14483;47.844;9.660;2023-04-25T06:44:35;4.30;;;1.77;;
26920;SDS011;14483;47.844;9.660;2023-04-25T06:47:03;6.97;;;1.83;;
26920;SDS011;14483;47.844;9.660;2023-04-25T06:49:30;2.45;;;1.60;;
26920;SDS011;14483;47.844;9.660;2023-04-25T06:51:56;3.00;;;1.35;;
26920;SDS011;14483;47.844;9.660;2023-04-25T06:54:22;2.70;;;1.38;;
26920;SDS011;14483;47.844;9.660;2023-04-25T06:56:49;4.35;;;1.67;;
26920;SDS011;14483;47.844;9.660;2023-04-25T06:59:16;5.03;;;1.95;;
26920;SDS011;14483;47.844;9.660;2023-04-25T07:01:42;7.97;;;2.38;;
26920;SDS011;14483;47.844;9.660;2023-04-25T07:04:10;3.53;;;1.60;;
26920;SDS011;14483;47.844;9.660;2023-04-25T07:06:36;3.97;;;1.67;;
26920;SDS011;14483;47.844;9.660;2023-04-25T07:09:07;3.90;;;1.50;;
26920;SDS011;14483;47.844;9.660;2023-04-25T07:11:33;6.20;;;1.48;;
26920;SDS011;14483;47.844;9.660;2023-04-25T07:14:00;4.72;;;1.67;;
26920;SDS011;14483;47.844;9.660;2023-04-25T07:16:26;3.70;;;1.63;;
26920;SDS011;14483;47.844;9.660;2023-04-25T07:18:52;7.82;;;1.90;;
26920;SDS011;14483;47.844;9.660;2023-04-25T07:21:20;7.53;;;2.30;;
26920;SDS011;14483;47.844;9.660;2023-04-25T07:23:46;8.10;;;1.67;;
26920;SDS011;14483;47.844;9.660;2023-04-25T07:26:13;4.57;;;1.60;;
26920;SDS011;14483;47.844;9.660;2023-04-25T07:28:39;3.22;;;1.42;;
26920;SDS011;14483;47.844;9.660;2023-04-25T07:31:05;3.58;;;1.52;;
26920;SDS011;14483;47.844;9.660;2023-04-25T07:33:33;4.30;;;1.30;;
26920;SDS011;14483;47.844;9.660;2023-04-25T07:35:59;6.68;;;1.60;;
26920;SDS011;14483;47.844;9.660;2023-04-25T07:38:27;5.13;;;1.48;;
26920;SDS011;14483;47.844;9.660;2023-04-25T07:40:53;7.18;;;1.88;;
26920;SDS011;14483;47.844;9.660;2023-04-25T07:43:20;5.00;;;1.60;;
26920;SDS011;14483;47.844;9.660;2023-04-25T07:45:46;4.78;;;1.05;;
26920;SDS011;14483;47.844;9.660;2023-04-25T07:48:15;3.88;;;1.10;;
26920;SDS011;14483;47.844;9.660;2023-04-25T07:50:42;2.55;;;1.15;;
26920;SDS011;14483;47.844;9.660;2023-04-25T07:53:08;5.82;;;1.50;;
26920;SDS011;14483;47.844;9.660;2023-04-25T07:55:36;4.50;;;1.40;;
26920;SDS011;14483;47.844;9.660;2023-04-25T07:58:05;7.15;;;1.50;;
26920;SDS011;14483;47.844;9.660;2023-04-25T08:00:31;4.00;;;1.48;;
26920;SDS011;14483;47.844;9.660;2023-04-25T08:02:57;5.05;;;1.35;;
26920;SDS011;14483;47.844;9.660;2023-04-25T08:05:24;3.50;;;1.25;;
26920;SDS011;14483;47.844;9.660;2023-04-25T08:07:50;5.45;;;1.48;;
26920;SDS011;14483;47.844;9.660;2023-04-25T08:10:17;5.20;;;1.88;;
26920;SDS011;14483;47.844;9.660;2023-04-25T08:12:44;5.25;;;1.20;;
26920;SDS011;14483;47.844;9.660;2023-04-25T08:15:11;6.90;;;1.15;;
26920;SDS011;14483;47.844;9.660;2023-04-25T08:17:38;5.22;;;0.80;;
26920;SDS011;14483;47.844;9.660;2023-04-25T08:20:05;5.22;;;1.33;;
26920;SDS011;14483;47.844;9.660;2023-04-25T08:22:32;3.50;;;1.33;;
26920;SDS011;14483;47.844;9.660;2023-04-25T08:24:59;4.25;;;1.40;;
26920;SDS011;14483;47.844;9.660;2023-04-25T08:27:25;4.97;;;1.67;;
26920;SDS011;14483;47.844;9.660;2023-04-25T08:29:53;3.65;;;1.63;;
26920;SDS011;14483;47.844;9.660;2023-04-25T08:32:19;4.30;;;0.88;;
26920;SDS011;14483;47.844;9.660;2023-04-25T08:34:46;3.15;;;1.38;;
26920;SDS011;14483;47.844;9.660;2023-04-25T08:37:12;3.33;;;1.20;;
26920;SDS011;14483;47.844;9.660;2023-04-25T08:39:39;7.30;;;1.63;;
26920;SDS011;14483;47.844;9.660;2023-04-25T08:42:06;1.30;;;0.82;;
26920;SDS011;14483;47.844;9.660;2023-04-25T08:44:32;3.25;;;0.73;;
26920;SDS011;14483;47.844;9.660;2023-04-25T08:47:00;4.43;;;0.90;;
26920;SDS011;14483;47.844;9.660;2023-04-25T08:49:27;1.88;;;0.57;;
26920;SDS011;14483;47.844;9.660;2023-04-25T08:51:54;1.88;;;0.63;;
26920;SDS011;14483;47.844;9.660;2023-04-25T08:54:24;1.80;;;0.60;;
26920;SDS011;14483;47.844;9.660;2023-04-25T08:56:53;1.15;;;0.50;;
26920;SDS011;14483;47.844;9.660;2023-04-25T08:59:20;2.22;;;0.50;;
26920;SDS011;14483;47.844;9.660;2023-04-25T09:01:47;1.23;;;0.57;;
26920;SDS011;14483;47.844;9.660;2023-04-25T09:04:15;1.75;;;0.93;;
26920;SDS011;14483;47.844;9.660;2023-04-25T09:06:41;1.40;;;0.57;;
26920;SDS011;14483;47.844;9.660;2023-04-25T09:09:08;1.15;;;0.50;;
26920;SDS011;14483;47.844;9.660;2023-04-25T09:11:36;1.27;;;0.60;;
26920;SDS011;14483;47.844;9.660;2023-04-25T09:14:12;2.47;;;0.50;;
26920;SDS011;14483;47.844;9.660;2023-04-25T09:19:22;1.85;;;0.80;;
26920;SDS011;14483;47.844;9.660;2023-04-25T09:21:49;0.85;;;0.50;;
26920;SDS011;14483;47.844;9.660;2023-04-25T09:24:15;2.15;;;0.63;;
26920;SDS011;14483;47.844;9.660;2023-04-25T09:26:41;1.15;;;0.50;;
26920;SDS011;14483;47.844;9.660;2023-04-25T09:29:08;0.90;;;0.47;;
26920;SDS011;14483;47.844;9.660;2023-04-25T09:31:35;0.88;;;0.47;;
26920;SDS011;14483;47.844;9.660;2023-04-25T09:34:02;1.13;;;0.30;;
26920;SDS011;14483;47.844;9.660;2023-04-25T09:36:30;1.25;;;0.50;;
26920;SDS011;14483;47.844;9.660;2023-04-25T09:38:57;0.98;;;0.50;;
26920;SDS011;14483;47.844;9.660;2023-04-25T09:41:25;1.25;;;0.60;;
26920;SDS011;14483;47.844;9.660;2023-04-25T09:43:52;0.98;;;0.60;;
26920;SDS011;14483;47.844;9.660;2023-04-25T09:46:23;1.52;;;0.60;;
26920;SDS011;14483;47.844;9.660;2023-04-25T09:48:50;1.00;;;0.50;;
26920;SDS011;14483;47.844;9.660;2023-04-25T09:51:18;0.85;;;0.45;;
26920;SDS011;14483;47.844;9.660;2023-04-25T09:53:46;2.58;;;0.68;;
26920;SDS011;14483;47.844;9.660;2023-04-25T09:56:14;1.27;;;0.70;;
26920;SDS011;14483;47.844;9.660;2023-04-25T09:58:41;1.60;;;0.77;;
26920;SDS011;14483;47.844;9.660;2023-04-25T10:01:08;2.17;;;0.70;;
26920;SDS011;14483;47.844;9.660;2023-04-25T10:03:35;1.20;;;0.77;;
26920;SDS011;14483;47.844;9.660;2023-04-25T10:06:03;1.67;;;0.90;;
26920;SDS011;14483;47.844;9.660;2023-04-25T10:08:30;1.33;;;0.80;;
26920;SDS011;14483;47.844;9.660;2023-04-25T10:10:59;1.60;;;0.95;;
26920;SDS011;14483;47.844;9.660;2023-04-25T10:13:26;1.38;;;0.90;;
26920;SDS011;14483;47.844;9.660;2023-04-25T10:15:53;1.58;;;0.90;;
26920;SDS011;14483;47.844;9.660;2023-04-25T10:18:19;1.67;;;0.80;;
26920;SDS011;14483;47.844;9.660;2023-04-25T10:20:46;3.20;;;0.90;;
26920;SDS011;14483;47.844;9.660;2023-04-25T10:23:13;1.67;;;0.77;;
26920;SDS011;14483;47.844;9.660;2023-04-25T10:25:40;3.13;;;1.60;;
26920;SDS011;14483;47.844;9.660;2023-04-25T10:28:07;1.45;;;0.50;;
26920;SDS011;14483;47.844;9.660;2023-04-25T10:30:34;0.70;;;0.40;;
26920;SDS011;14483;47.844;9.660;2023-04-25T10:33:00;1.00;;;0.50;;
26920;SDS011;14483;47.844;9.660;2023-04-25T10:35:28;0.50;;;0.30;;
26920;SDS011;14483;47.844;9.660;2023-04-25T10:37:58;0.75;;;0.30;;
26920;SDS011;14483;47.844;9.660;2023-04-25T10:40:25;0.30;;;0.20;;
26920;SDS011;14483;47.844;9.660;2023-04-25T10:42:51;0.10;;;0.10;;
26920;SDS011;14483;47.844;9.660;2023-04-25T10:45:19;0.88;;;0.20;;
26920;SDS011;14483;47.844;9.660;2023-04-25T10:47:46;0.52;;;0.22;;
26920;SDS011;14483;47.844;9.660;2023-04-25T10:50:13;0.20;;;0.10;;
26920;SDS011;14483;47.844;9.660;2023-04-25T10:52:40;1.42;;;0.10;;
26920;SDS011;14483;47.844;9.660;2023-04-25T10:55:07;0.43;;;0.10;;
26920;SDS011;14483;47.844;9.660;2023-04-25T10:57:37;0.20;;;0.00;;
26920;SDS011;14483;47.844;9.660;2023-04-25T11:00:08;0.57;;;0.10;;
26920;SDS011;14483;47.844;9.660;2023-04-25T11:02:44;0.45;;;0.25;;
26920;SDS011;14483;47.844;9.660;2023-04-25T11:05:15;0.20;;;0.15;;
26920;SDS011;14483;47.844;9.660;2023-04-25T11:07:44;0.13;;;0.10;;
26920;SDS011;14483;47.844;9.660;2023-04-25T11:10:13;1.35;;;0.20;;
26920;SDS011;14483;47.844;9.660;2023-04-25T11:12:40;0.35;;;0.20;;
26920;SDS011;14483;47.844;9.660;2023-04-25T11:15:07;0.10;;;0.10;;
26920;SDS011;14483;47.844;9.660;2023-04-25T11:17:33;0.10;;;0.10;;
26920;SDS011;14483;47.844;9.660;2023-04-25T11:20:01;0.40;;;0.20;;
26920;SDS011;14483;47.844;9.660;2023-04-25T11:22:31;0.17;;;0.13;;
26920;SDS011;14483;47.844;9.660;2023-04-25T11:24:57;0.20;;;0.10;;
26920;SDS011;14483;47.844;9.660;2023-04-25T11:27:24;0.40;;;0.10;;
26920;SDS011;14483;47.844;9.660;2023-04-25T11:29:50;1.60;;;1.00;;
26920;SDS011;14483;47.844;9.660;2023-04-25T11:32:17;0.05;;;0.05;;
26920;SDS011;14483;47.844;9.660;2023-04-25T11:34:44;0.20;;;0.17;;
26920;SDS011;14483;47.844;9.660;2023-04-25T11:37:12;1.05;;;0.47;;
26920;SDS011;14483;47.844;9.660;2023-04-25T11:39:42;0.50;;;0.30;;
26920;SDS011;14483;47.844;9.660;2023-04-25T11:42:08;0.40;;;0.20;;
26920;SDS011;14483;47.844;9.660;2023-04-25T11:44:35;0.28;;;0.10;;
26920;SDS011;14483;47.844;9.660;2023-04-25T11:47:01;0.60;;;0.22;;
26920;SDS011;14483;47.844;9.660;2023-04-25T11:49:30;0.10;;;0.00;;
26920;SDS011;14483;47.844;9.660;2023-04-25T11:51:56;0.57;;;0.20;;
26920;SDS011;14483;47.844;9.660;2023-04-25T11:54:24;0.60;;;0.30;;
26920;SDS011;14483;47.844;9.660;2023-04-25T11:56:51;0.50;;;0.20;;
26920;SDS011;14483;47.844;9.660;2023-04-25T11:59:17;0.20;;;0.10;;
26920;SDS011;14483;47.844;9.660;2023-04-25T12:01:49;0.20;;;0.20;;
26920;SDS011;14483;47.844;9.660;2023-04-25T12:04:16;0.45;;;0.20;;
26920;SDS011;14483;47.844;9.660;2023-04-25T12:06:44;0.65;;;0.20;;
26920;SDS011;14483;47.844;9.660;2023-04-25T12:09:11;0.20;;;0.13;;
26920;SDS011;14483;47.844;9.660;2023-04-25T12:11:43;0.63;;;0.30;;
26920;SDS011;14483;47.844;9.660;2023-04-25T12:14:09;0.77;;;0.22;;
26920;SDS011;14483;47.844;9.660;2023-04-25T12:16:40;0.47;;;0.30;;
26920;SDS011;14483;47.844;9.660;2023-04-25T12:19:06;0.50;;;0.30;;
26920;SDS011;14483;47.844;9.660;2023-04-25T12:21:33;0.43;;;0.20;;
26920;SDS011;14483;47.844;9.660;2023-04-25T12:24:08;0.40;;;0.10;;
26920;SDS011;14483;47.844;9.660;2023-04-25T12:26:47;0.20;;;0.10;;
26920;SDS011;14483;47.844;9.660;2023-04-25T12:29:17;0.10;;;0.10;;
26920;SDS011;14483;47.844;9.660;2023-04-25T12:31:43;1.33;;;0.40;;
26920;SDS011;14483;47.844;9.660;2023-04-25T12:34:11;0.20;;;0.10;;
26920;SDS011;14483;47.844;9.660;2023-04-25T12:36:37;1.05;;;0.32;;
26920;SDS011;14483;47.844;9.660;2023-04-25T12:39:04;1.15;;;0.22;;
26920;SDS011;14483;47.844;9.660;2023-04-25T12:41:30;0.73;;;0.40;;
26920;SDS011;14483;47.844;9.660;2023-04-25T12:43:58;1.35;;;0.10;;
26920;SDS011;14483;47.844;9.660;2023-04-25T12:46:24;1.75;;;0.10;;
26920;SDS011;14483;47.844;9.660;2023-04-25T12:48:51;0.30;;;0.10;;
26920;SDS011;14483;47.844;9.660;2023-04-25T12:51:17;0.00;;;0.00;;
26920;SDS011;14483;47.844;9.660;2023-04-25T12:53:44;0.20;;;0.10;;
26920;SDS011;14483;47.844;9.660;2023-04-25T12:56:10;0.10;;;0.10;;
26920;SDS011;14483;47.844;9.660;2023-04-25T12:58:37;0.10;;;0.05;;
26920;SDS011;14483;47.844;9.660;2023-04-25T13:01:05;0.25;;;0.10;;
26920;SDS011;14483;47.844;9.660;2023-04-25T13:03:32;0.20;;;0.08;;
26920;SDS011;14483;47.844;9.660;2023-04-25T13:05:59;0.35;;;0.10;;
26920;SDS011;14483;47.844;9.660;2023-04-25T13:08:25;0.95;;;0.00;;
26920;SDS011;14483;47.844;9.660;2023-04-25T13:10:52;1.73;;;0.50;;
26920;SDS011;14483;47.844;9.660;2023-04-25T13:13:18;0.80;;;0.30;;
26920;SDS011;14483;47.844;9.660;2023-04-25T13:15:45;0.55;;;0.10;;
26920;SDS011;14483;47.844;9.660;2023-04-25T13:18:13;0.50;;;0.10;;
26920;SDS011;14483;47.844;9.660;2023-04-25T13:20:39;0.00;;;0.00;;
26920;SDS011;14483;47.844;9.660;2023-04-25T13:23:06;0.77;;;0.20;;
26920;SDS011;14483;47.844;9.660;2023-04-25T13:25:32;0.10;;;0.03;;
26920;SDS011;14483;47.844;9.660;2023-04-25T13:27:59;1.40;;;0.20;;
26920;SDS011;14483;47.844;9.660;2023-04-25T13:30:25;0.28;;;0.10;;
26920;SDS011;14483;47.844;9.660;2023-04-25T13:32:52;1.75;;;0.05;;
26920;SDS011;14483;47.844;9.660;2023-04-25T13:35:20;1.55;;;0.10;;
26920;SDS011;14483;47.844;9.660;2023-04-25T13:37:46;0.30;;;0.05;;
26920;SDS011;14483;47.844;9.660;2023-04-25T13:40:13;0.10;;;0.05;;
26920;SDS011;14483;47.844;9.660;2023-04-25T13:42:39;0.22;;;0.10;;
26920;SDS011;14483;47.844;9.660;2023-04-25T13:45:06;0.10;;;0.10;;
26920;SDS011;14483;47.844;9.660;2023-04-25T13:47:33;0.20;;;0.10;;
26920;SDS011;14483;47.844;9.660;2023-04-25T13:50:00;0.10;;;0.10;;
26920;SDS011;14483;47.844;9.660;2023-04-25T13:52:29;0.20;;;0.10;;
26920;SDS011;14483;47.844;9.660;2023-04-25T13:54:55;0.65;;;0.10;;
26920;SDS011;14483;47.844;9.660;2023-04-25T13:57:22;0.08;;;0.00;;
26920;SDS011;14483;47.844;9.660;2023-04-25T13:59:48;0.20;;;0.10;;
26920;SDS011;14483;47.844;9.660;2023-04-25T14:02:14;0.20;;;0.10;;
26920;SDS011;14483;47.844;9.660;2023-04-25T14:04:41;0.35;;;0.13;;
26920;SDS011;14483;47.844;9.660;2023-04-25T14:07:07;0.52;;;0.20;;
26920;SDS011;14483;47.844;9.660;2023-04-25T14:09:35;0.40;;;0.10;;
26920;SDS011;14483;47.844;9.660;2023-04-25T14:12:01;0.28;;;0.10;;
26920;SDS011;14483;47.844;9.660;2023-04-25T14:14:28;0.10;;;0.10;;
26920;SDS011;14483;47.844;9.660;2023-04-25T14:16:54;0.20;;;0.10;;
26920;SDS011;14483;47.844;9.660;2023-04-25T14:19:22;0.30;;;0.10;;
26920;SDS011;14483;47.844;9.660;2023-04-25T14:21:49;1.20;;;0.05;;
26920;SDS011;14483;47.844;9.660;2023-04-25T14:24:15;0.30;;;0.10;;
26920;SDS011;14483;47.844;9.660;2023-04-25T14:26:43;0.00;;;0.00;;
26920;SDS011;14483;47.844;9.660;2023-04-25T14:29:10;0.20;;;0.10;;
26920;SDS011;14483;47.844;9.660;2023-04-25T14:31:37;0.10;;;0.03;;
26920;SDS011;14483;47.844;9.660;2023-04-25T14:34:04;0.10;;;0.10;;
26920;SDS011;14483;47.844;9.660;2023-04-25T14:36:31;0.30;;;0.20;;
26920;SDS011;14483;47.844;9.660;2023-04-25T14:38:58;0.30;;;0.10;;
26920;SDS011;14483;47.844;9.660;2023-04-25T14:41:24;0.10;;;0.10;;
26920;SDS011;14483;47.844;9.660;2023-04-25T14:43:52;0.25;;;0.10;;
26920;SDS011;14483;47.844;9.660;2023-04-25T14:46:18;0.17;;;0.10;;
26920;SDS011;14483;47.844;9.660;2023-04-25T14:48:45;0.10;;;0.10;;